Eldred, Minnesota
Current Conditions -  °F | °C
As of 10:14 PM on Tuesday 21 Oct 2014 (Local Time) from KCKN Reporting Station
Clear Clear  
Wind Chill: 55°   Ceiling: Unl
Heat Index: 55°   Visibility: 10mi
Dew Point: 41°   Wind: 21mph
Humidity: 58%   Direction: 170°S
Pressure: 29.91"   Gusts: 29mph
Location:  47.664°N, 96.7656°W
Report Text: KCKN 220314Z AUTO 17018G25KT 10SM CLR 13/05 A2991 RMK AO2
Loading
Personal Weather Stations






























Interactive Weather Map
Tropical Storm Tracking
New forecast layout! Learn more

10-Day Weather Forecast

Advertisements
Track Severe Weather on mobile